Strona główna
METAR-TAF:

METAR-TAF

Lotnisko :

Port lotniczy Sliač

Bańska Bystrzyca, Słowacja

Szerokość geograficzna: 48-38-17N, Długość geograficzna: 019-08-03E, wysokość: 318 m

Aktualna obserwacja pogody

Raport powstał 26 minut temu, godzina 01:30 UTC
Cisza
Temperatura 8°C
Wilgotność 87%
Ciśnienie 1015 hPa
Widzialność 10 km lub więcej
Brak chmur poniżej 1500 m i brak chmur cumulonimbus

METAR: LZSL 260130Z 00000KT CAVOK 08/06 Q1015

czas: 03:56 (01:56 UTC)

Prognoza

Raport powstał 2 godziny i 56 minut temu, godzina 23:00 UTC
Prognoza ważna od 26 godzina 00 UTC do 26 godzina 09 UTC
Wiatr 2 kt z kierunków zmiennych
Widzialność 10 km lub więcej
Brak chmur poniżej 1500 m i brak chmur cumulonimbus
Prawdopodobieństwo 30% :
Przejściowo
od 26 godzina 01 UTC do 26 godzina 05 UTC
Widzialność: 5000 m
zamglenie
Stopniowe zmiany
od 26 godzina 06 UTC do 26 godzina 08 UTC
Wiatr 8 kt od południe

TAF: LZSL 252300Z 2600/2609 VRB02KT CAVOK PROB30 TEMPO 2601/2605 5000 BR NSC BECMG 2606/2608 17008KT

Obserwacja i prognoza pogody dla ponad 4000 lotnisk (raport METAR i TAF).

Dostępne stacje oznaczono żółtymi i czerwonymi punktami na mapie.

Najedź kursorem aby zobaczyć nazwę stacji.

Kliknij aby zobaczyć obserwacje i prognozy pogody.

Aby zmienić mapę: kliknij na zielony przycisk z czarnym krzyżykiem, aby powiększyć; na zielony przycisk z myślnikiem, aby pomniejszyć; na zielone strzałki, aby przejść do map sąsiednich.


METAR-TAF: